Time;durP1;ratioP1;P1;durP2;ratioP2;P2;SDS_P1;SDS_P2;PMS_P1;PMS_P2;Temp;Humidity;BMP_temperature;BMP_pressure;BME280_temperature;BME280_humidity;BME280_pressure;Samples;Min_cycle;Max_cycle;Signal;HPM_P1;HPM_P2
2021/05/18 00:00:58;;;;;;;11.93;7.60;;;;;;;12.60;82.42;99131.40;1797929;77;26335;-70
2021/05/18 00:03:24;;;;;;;10.45;8.18;;;;;;;12.61;82.48;99130.89;1799018;77;26229;-70
2021/05/18 00:05:55;;;;;;;11.10;8.93;;;;;;;12.60;82.59;99127.47;1799676;78;25453;-70
2021/05/18 00:08:23;;;;;;;11.20;9.45;;;;;;;12.61;82.69;99127.75;1802663;77;25593;-71
2021/05/18 00:13:47;;;;;;;10.08;8.63;;;;;;;12.62;82.77;99137.22;1797591;77;26084;-72
2021/05/18 00:16:13;;;;;;;9.53;7.92;;;;;;;12.56;83.96;99128.09;1797999;77;25547;-71
2021/05/18 00:18:40;;;;;;;12.68;8.00;;;;;;;12.53;83.74;99133.75;1799814;77;26268;-71
2021/05/18 00:21:06;;;;;;;9.85;7.35;;;;;;;12.50;84.67;99127.10;1799455;77;26307;-71
2021/05/18 00:23:34;;;;;;;10.15;7.80;;;;;;;12.48;84.52;99133.05;1799443;77;25697;-71
2021/05/18 00:26:01;;;;;;;10.18;8.00;;;;;;;12.48;84.22;99126.50;1799842;77;25651;-71
2021/05/18 00:28:27;;;;;;;12.20;8.05;;;;;;;12.49;84.11;99135.95;1800657;77;25352;-72
2021/05/18 00:30:53;;;;;;;10.18;7.65;;;;;;;12.49;84.68;99132.02;1799048;78;25708;-72
2021/05/18 00:33:22;;;;;;;11.40;8.10;;;;;;;12.48;84.87;99136.18;1798907;78;25397;-72
2021/05/18 00:35:49;;;;;;;11.20;8.10;;;;;;;12.47;84.33;99132.77;1798075;77;26152;-72
2021/05/18 00:38:18;;;;;;;10.58;7.45;;;;;;;12.46;84.31;99121.96;1763477;79;25786;-71
2021/05/18 00:40:46;;;;;;;14.13;8.40;;;;;;;12.46;84.80;99119.34;1798622;78;25536;-71
2021/05/18 00:43:12;;;;;;;9.30;7.47;;;;;;;12.46;84.45;99119.34;1800134;78;26537;-71
2021/05/18 00:45:43;;;;;;;10.98;8.60;;;;;;;12.45;84.48;99120.36;1797680;78;25690;-71
2021/05/18 00:48:11;;;;;;;9.95;7.12;;;;;;;12.43;85.07;99119.25;1799574;77;25631;-72
2021/05/18 00:50:41;;;;;;;10.23;7.47;;;;;;;12.39;85.08;99112.03;1798305;77;25532;-72
2021/05/18 00:53:07;;;;;;;11.80;7.78;;;;;;;12.39;84.67;99108.89;1800419;77;25544;-73
2021/05/18 01:00:58;;;;;;;10.28;7.28;;;;;;;12.37;84.80;99100.95;1800589;77;25480;-72
2021/05/18 01:03:26;;;;;;;10.25;7.70;;;;;;;12.34;84.85;99103.98;1794069;77;25572;-72
2021/05/18 01:08:37;;;;;;;10.08;7.33;;;;;;;12.33;85.06;99099.25;1801904;77;25540;-72
2021/05/18 01:11:05;;;;;;;11.63;8.23;;;;;;;12.32;85.88;99102.86;1800609;77;25192;-72
2021/05/18 01:13:33;;;;;;;12.43;8.05;;;;;;;12.31;85.30;99107.81;1796981;77;25230;-72
2021/05/18 01:16:00;;;;;;;11.22;7.78;;;;;;;12.33;85.40;99111.52;1796195;77;25535;-72
2021/05/18 01:18:26;;;;;;;11.08;7.60;;;;;;;12.31;85.43;99115.68;1799464;78;25613;-72
2021/05/18 01:20:58;;;;;;;11.65;7.55;;;;;;;12.30;85.42;99106.19;1801725;78;25954;-72
2021/05/18 01:23:26;;;;;;;9.95;7.58;;;;;;;12.30;85.56;99104.88;1775303;78;25646;-71
2021/05/18 01:25:53;;;;;;;11.53;7.35;;;;;;;12.32;85.55;99099.45;1798537;78;25185;-71
2021/05/18 01:28:21;;;;;;;9.73;7.33;;;;;;;12.31;86.21;99104.40;1797800;78;25551;-70
2021/05/18 01:30:49;;;;;;;10.15;7.40;;;;;;;12.29;85.85;99105.91;1798770;77;25511;-70
2021/05/18 01:33:16;;;;;;;9.05;7.03;;;;;;;12.30;85.88;99108.02;1795160;77;26498;-71
2021/05/18 01:35:43;;;;;;;10.25;7.53;;;;;;;12.27;86.26;99105.30;1799021;77;25589;-71
2021/05/18 01:38:13;;;;;;;11.50;7.92;;;;;;;12.26;86.07;99105.52;1778215;77;25542;-71
2021/05/18 01:43:23;;;;;;;9.75;7.70;;;;;;;12.29;86.02;99114.27;1780394;77;25405;-70
2021/05/18 01:45:48;;;;;;;9.60;7.37;;;;;;;12.32;86.18;99119.09;1796865;77;25512;-71
2021/05/18 01:48:16;;;;;;;8.88;7.55;;;;;;;12.33;86.43;99120.70;1801898;77;32195;-71
2021/05/18 01:50:48;;;;;;;9.70;6.87;;;;;;;12.32;86.46;99117.28;1798881;77;25527;-71
2021/05/18 01:53:17;;;;;;;10.85;7.60;;;;;;;12.32;86.79;99118.59;1797159;77;25569;-72
2021/05/18 01:56:00;;;;;;;10.45;7.62;;;;;;;12.33;86.47;99122.00;1773913;78;25578;-71
2021/05/18 01:58:15;;;;;;;10.28;8.00;;;;;;;12.36;86.97;99122.92;1796723;77;25551;-71
2021/05/18 02:00:43;;;;;;;9.68;7.05;;;;;;;12.38;86.75;99124.30;1796128;77;25629;-71
2021/05/18 02:03:11;;;;;;;8.73;7.08;;;;;;;12.40;87.21;99117.05;1775033;77;25576;-71
2021/05/18 02:05:40;;;;;;;8.73;7.22;;;;;;;12.39;87.23;99122.00;1797518;77;25637;-71
2021/05/18 02:08:25;;;;;;;11.97;8.15;;;;;;;12.41;87.02;99123.09;1797447;77;25598;-72
2021/05/18 02:10:53;;;;;;;11.45;7.85;;;;;;;12.40;87.93;99116.25;1798638;78;25762;-71
2021/05/18 02:13:19;;;;;;;10.23;7.15;;;;;;;12.38;87.27;99115.13;1798697;78;25562;-71
2021/05/18 02:26:22;;;;;;;13.13;8.13;;;;;;;12.48;87.17;99112.08;1799603;78;25431;-71
2021/05/18 02:28:50;;;;;;;9.55;7.42;;;;;;;12.46;87.26;99119.34;1799628;77;25538;-71
2021/05/18 02:31:18;;;;;;;9.63;7.03;;;;;;;12.45;87.35;99128.23;1797579;77;25190;-71
2021/05/18 02:33:51;;;;;;;10.10;7.30;;;;;;;12.43;87.75;99130.24;1780622;78;25485;-72
2021/05/18 02:36:21;;;;;;;9.93;6.78;;;;;;;12.41;87.62;99132.26;1799990;77;25638;-71
2021/05/18 02:38:47;;;;;;;12.68;7.65;;;;;;;12.41;87.52;99130.46;1798546;77;25581;-71
2021/05/18 02:41:15;;;;;;;9.35;7.20;;;;;;;12.39;87.36;99129.86;1800993;77;25632;-71
2021/05/18 02:43:46;;;;;;;11.00;7.20;;;;;;;12.39;87.99;99131.68;1800273;77;25174;-71
2021/05/18 02:51:25;;;;;;;8.20;6.53;;;;;;;12.37;87.44;99132.39;1798211;77;26291;-71
2021/05/18 02:53:53;;;;;;;12.40;6.83;;;;;;;12.37;87.51;99138.42;1797242;77;25596;-71
2021/05/18 02:56:27;;;;;;;8.08;6.97;;;;;;;12.38;87.36;99139.22;1798708;78;25173;-71
2021/05/18 02:58:58;;;;;;;9.05;6.90;;;;;;;12.36;87.36;99138.14;1797301;78;25559;-71
2021/05/18 03:01:15;;;;;;;10.95;7.28;;;;;;;12.34;87.41;99141.46;1795857;78;25696;-72
2021/05/18 03:03:41;;;;;;;9.80;7.23;;;;;;;12.35;87.50;99135.71;1798873;77;32819;-71
2021/05/18 03:06:07;;;;;;;9.43;6.83;;;;;;;12.36;87.70;99138.14;1801467;77;25587;-71
2021/05/18 03:08:37;;;;;;;7.78;6.22;;;;;;;12.34;87.41;99135.42;1797138;77;34695;-72
2021/05/18 03:11:00;;;;;;;8.65;6.78;;;;;;;12.36;88.05;99141.27;1798154;77;25551;-72
2021/05/18 03:13:26;;;;;;;10.03;6.97;;;;;;;12.34;87.64;99135.42;1798954;77;25606;-71
2021/05/18 03:15:52;;;;;;;9.77;6.80;;;;;;;12.36;87.53;99137.34;1798149;77;31956;-71
2021/05/18 03:18:18;;;;;;;8.73;7.17;;;;;;;12.38;87.41;99136.60;1799085;77;29353;-70
2021/05/18 03:20:43;;;;;;;8.63;7.05;;;;;;;12.43;87.40;99138.10;1797081;77;34674;-71
2021/05/18 03:23:09;;;;;;;10.85;6.78;;;;;;;12.41;87.50;99141.43;1797938;77;32598;-70
2021/05/18 03:25:35;;;;;;;11.57;7.37;;;;;;;12.41;87.52;99145.36;1801068;78;26485;-71
2021/05/18 03:28:01;;;;;;;8.00;6.43;;;;;;;12.43;87.35;99143.34;1792955;78;30849;-71
2021/05/18 03:35:41;;;;;;;9.25;7.15;;;;;;;12.46;87.50;99150.78;1798596;77;25623;-72
2021/05/18 03:38:55;;;;;;;14.00;7.42;;;;;;;12.48;87.39;99142.22;1799190;77;26221;-71
2021/05/18 03:40:38;;;;;;;11.08;6.70;;;;;;;12.51;87.46;99143.62;1777605;78;25561;-72
2021/05/18 03:45:39;;;;;;;;;;;;;;;12.54;87.37;99137.45;1758457;77;25760;-71
2021/05/18 03:53:44;;;;;;;10.40;7.75;;;;;;;12.58;87.69;99146.52;1748016;80;26002;-71
2021/05/18 03:59:07;;;;;;;9.63;7.30;;;;;;;12.64;87.55;99150.13;1749256;81;25618;-70
2021/05/18 04:04:18;;;;;;;10.93;7.40;;;;;;;12.65;87.42;99153.03;1705180;82;25880;-71
2021/05/18 04:17:30;;;;;;;10.45;7.53;;;;;;;12.82;87.25;99159.91;1694790;83;25726;-71
2021/05/18 04:25:23;;;;;;;8.98;6.90;;;;;;;12.92;87.40;99162.09;1694152;83;35180;-71
2021/05/18 04:51:40;;;;;;;12.00;8.48;;;;;;;13.26;86.66;99164.88;1750467;79;26449;-71
2021/05/18 04:59:23;;;;;;;9.53;7.80;;;;;;;13.33;86.46;99165.61;1798936;77;25617;-71
2021/05/18 05:14:29;;;;;;;10.03;8.53;;;;;;;13.42;85.78;99177.48;1797953;78;25633;-71
2021/05/18 05:16:55;;;;;;;10.65;7.97;;;;;;;13.41;85.71;99180.30;1797565;77;35246;-71
2021/05/18 05:19:26;;;;;;;9.15;7.65;;;;;;;13.47;85.87;99179.45;1798090;78;26233;-72
2021/05/18 05:21:49;;;;;;;11.38;8.03;;;;;;;13.47;85.64;99180.25;1797334;78;25601;-72
2021/05/18 05:24:15;;;;;;;11.22;8.85;;;;;;;13.50;85.60;99188.20;1799539;78;32104;-72
2021/05/18 05:26:41;;;;;;;13.60;8.27;;;;;;;13.49;85.39;99182.16;1798370;78;30864;-72
2021/05/18 05:29:07;;;;;;;10.82;7.87;;;;;;;13.53;85.49;99191.23;1798595;77;25194;-72
2021/05/18 05:31:34;;;;;;;10.25;8.15;;;;;;;13.55;85.40;99193.63;1798296;78;25612;-72
2021/05/18 05:34:00;;;;;;;10.58;7.47;;;;;;;13.54;85.15;99189.41;1794552;77;25677;-71
2021/05/18 05:36:26;;;;;;;11.20;7.62;;;;;;;13.55;85.00;99187.86;1797730;78;25610;-72
2021/05/18 05:38:58;;;;;;;11.17;8.40;;;;;;;13.55;84.80;99191.00;1796408;78;30199;-72
2021/05/18 05:41:20;;;;;;;9.15;7.58;;;;;;;13.55;84.65;99193.11;1797947;78;25626;-71
2021/05/18 05:43:46;;;;;;;11.97;8.13;;;;;;;13.55;84.77;99190.48;1796744;77;25626;-72
2021/05/18 05:46:12;;;;;;;10.40;7.87;;;;;;;13.56;84.58;99192.63;1799072;77;26037;-71
2021/05/18 05:48:38;;;;;;;11.18;7.87;;;;;;;13.58;84.52;99191.08;1798312;78;32404;-72
2021/05/18 05:51:04;;;;;;;13.40;8.68;;;;;;;13.59;84.56;99195.34;1800860;77;31490;-72
2021/05/18 05:53:30;;;;;;;10.32;8.53;;;;;;;13.62;84.40;99197.53;1797796;77;25105;-72
2021/05/18 05:55:56;;;;;;;12.58;9.13;;;;;;;13.65;84.14;99202.36;1798962;77;25567;-71
2021/05/18 05:58:22;;;;;;;9.78;8.75;;;;;;;13.66;83.91;99203.44;1799089;77;25629;-71
2021/05/18 06:00:48;;;;;;;14.27;9.97;;;;;;;13.65;83.90;99198.41;1799435;77;31823;-71
2021/05/18 06:03:13;;;;;;;15.27;8.90;;;;;;;13.69;83.92;99195.64;1799671;77;31284;-71
2021/05/18 06:05:39;;;;;;;10.95;8.78;;;;;;;13.71;83.72;99191.78;1798878;77;35108;-70
2021/05/18 06:08:05;;;;;;;15.18;9.15;;;;;;;13.75;83.90;99195.61;1799325;77;33576;-70
2021/05/18 06:10:36;;;;;;;13.55;9.43;;;;;;;13.82;83.61;99200.00;1798552;77;25863;-71
2021/05/18 06:13:19;;;;;;;11.85;9.00;;;;;;;13.85;83.47;99204.30;1798583;78;26484;-70
2021/05/18 06:37:29;;;;;;;10.90;9.08;;;;;;;14.12;82.03;99221.95;1796217;78;25718;-72
2021/05/18 06:47:49;;;;;;;12.05;9.05;;;;;;;13.93;82.11;99219.79;1693596;82;25673;-72
2021/05/18 06:52:43;;;;;;;12.90;9.83;;;;;;;13.95;82.11;99218.27;1693672;82;25856;-73
2021/05/18 06:55:14;;;;;;;11.20;8.68;;;;;;;13.97;82.19;99220.98;1694432;82;25655;-73
2021/05/18 06:58:07;;;;;;;12.18;9.98;;;;;;;14.02;82.26;99222.14;1624282;85;25509;-73
2021/05/18 07:00:37;;;;;;;11.08;8.83;;;;;;;14.06;82.05;99222.02;1622835;85;26573;-73
2021/05/18 07:03:08;;;;;;;14.53;10.15;;;;;;;14.03;81.89;99221.94;1623720;85;26271;-72
2021/05/18 07:10:34;;;;;;;10.75;9.65;;;;;;;14.03;81.66;99233.77;1624080;85;25631;-73
2021/05/18 07:13:00;;;;;;;11.73;8.95;;;;;;;13.98;81.59;99238.34;1638733;83;32702;-73
2021/05/18 07:15:27;;;;;;;12.20;9.40;;;;;;;13.96;81.65;99236.95;1708404;82;25460;-73
2021/05/18 07:17:56;;;;;;;12.07;9.30;;;;;;;13.96;81.63;99240.38;1706891;81;25901;-73
2021/05/18 07:20:22;;;;;;;10.90;9.73;;;;;;;13.94;81.68;99246.37;1706879;81;25207;-72
2021/05/18 07:22:52;;;;;;;11.97;10.18;;;;;;;13.95;81.90;99251.11;1707004;81;25187;-73
2021/05/18 07:25:16;;;;;;;13.28;9.10;;;;;;;13.91;81.73;99249.44;1707168;81;25746;-73
2021/05/18 07:27:42;;;;;;;11.60;10.32;;;;;;;13.99;81.93;99250.48;1709033;81;25844;-72
2021/05/18 07:30:10;;;;;;;12.65;10.85;;;;;;;14.01;81.53;99247.63;1707249;81;25460;-72
2021/05/18 07:32:36;;;;;;;14.93;10.93;;;;;;;13.99;81.62;99254.91;1707293;81;25187;-72
2021/05/18 07:35:05;;;;;;;11.93;10.63;;;;;;;13.99;81.53;99243.91;1708391;81;34707;-73
2021/05/18 07:37:32;;;;;;;11.22;9.75;;;;;;;13.99;81.50;99242.59;1708387;81;25699;-73
2021/05/18 07:39:58;;;;;;;13.40;10.63;;;;;;;14.01;81.53;99243.68;1706707;81;25505;-73
2021/05/18 07:42:24;;;;;;;12.33;10.68;;;;;;;14.00;81.74;99247.34;1709504;81;25620;-73
2021/05/18 07:44:50;;;;;;;12.20;9.90;;;;;;;14.01;81.65;99254.19;1708033;81;31157;-73
2021/05/18 07:47:17;;;;;;;12.28;9.55;;;;;;;14.01;81.52;99256.02;1708085;81;34723;-73
2021/05/18 07:49:46;;;;;;;12.40;9.70;;;;;;;13.99;81.42;99257.05;1706648;81;25413;-70
2021/05/18 08:05:49;;;;;;;11.75;9.03;;;;;;;14.10;81.38;99256.03;1706922;81;25699;-72
2021/05/18 08:08:16;;;;;;;11.63;9.90;;;;;;;14.11;81.33;99262.92;1707125;81;25581;-72
2021/05/18 08:13:11;;;;;;;12.37;8.98;;;;;;;14.07;81.05;99257.78;1707018;81;25636;-72
2021/05/18 10:37:24;;;;;;;15.60;10.00;;;;;;;14.57;79.41;99323.52;1707214;81;25647;-76
2021/05/18 10:40:23;;;;;;;11.43;9.10;;;;;;;14.58;79.56;99314.08;1704896;81;25513;-74
2021/05/18 10:43:12;;;;;;;11.22;9.43;;;;;;;14.61;79.86;99317.59;1708620;81;25578;-73
2021/05/18 10:46:00;;;;;;;13.28;8.98;;;;;;;14.66;79.66;99311.69;1706578;81;25558;-74
2021/05/18 10:48:42;;;;;;;10.85;9.18;;;;;;;14.71;79.42;99322.87;1707671;81;25580;-73
2021/05/18 10:51:34;;;;;;;12.58;9.93;;;;;;;14.74;79.18;99320.61;1706468;81;25728;-74
2021/05/18 10:54:24;;;;;;;13.28;9.38;;;;;;;14.76;78.92;99321.69;1706454;81;25157;-74
2021/05/18 10:57:05;;;;;;;10.65;8.70;;;;;;;14.79;78.94;99316.02;1708082;81;25632;-74
2021/05/18 10:59:43;;;;;;;11.97;8.83;;;;;;;14.85;79.05;99318.56;1706984;81;25922;-75
2021/05/18 11:02:16;;;;;;;11.03;8.73;;;;;;;14.89;78.86;99320.23;1707116;81;25570;-75
2021/05/18 11:05:06;;;;;;;12.10;9.70;;;;;;;14.95;78.93;99316.75;1706790;81;25490;-75
2021/05/18 11:07:40;;;;;;;12.37;8.58;;;;;;;14.99;78.49;99313.96;1681941;81;26361;-75
2021/05/18 11:10:16;;;;;;;12.00;9.33;;;;;;;15.02;78.39;99316.67;1707836;81;25797;-73
2021/05/18 11:12:51;;;;;;;10.85;8.68;;;;;;;15.08;78.76;99316.58;1707816;81;26518;-72
2021/05/18 11:15:23;;;;;;;12.13;8.10;;;;;;;15.16;78.65;99307.59;1682162;82;25575;-72
2021/05/18 11:17:54;;;;;;;13.43;7.80;;;;;;;15.17;78.36;99307.07;1704971;81;25888;-72
2021/05/18 11:23:20;;;;;;;13.03;8.95;;;;;;;15.23;78.64;99307.00;1706421;81;25519;-74
2021/05/18 11:26:04;;;;;;;12.93;8.53;;;;;;;15.23;78.44;99300.42;1707310;81;25559;-74
2021/05/18 11:28:37;;;;;;;11.05;7.95;;;;;;;15.22;78.59;99307.22;1707047;81;25937;-76
2021/05/18 11:31:08;;;;;;;10.40;9.28;;;;;;;15.23;78.61;99300.42;1708795;81;25599;-75
2021/05/18 11:33:46;;;;;;;10.50;9.40;;;;;;;15.27;78.77;99307.36;1707512;81;25740;-74
2021/05/18 11:36:18;;;;;;;12.50;9.90;;;;;;;15.22;78.41;99313.80;1707611;81;26022;-74
2021/05/18 11:38:56;;;;;;;14.90;9.40;;;;;;;15.13;78.64;99313.81;1707881;81;25625;-75
2021/05/18 11:41:28;;;;;;;11.40;9.73;;;;;;;15.13;78.89;99311.19;1707615;81;25523;-75
2021/05/18 11:43:58;;;;;;;11.55;9.88;;;;;;;15.16;78.88;99314.17;1707340;81;26470;-75
2021/05/18 11:46:26;;;;;;;13.63;10.33;;;;;;;15.15;78.82;99324.42;1707957;81;26458;-75
2021/05/18 11:49:08;;;;;;;12.78;10.90;;;;;;;15.13;78.87;99321.19;1704585;81;25612;-74
2021/05/18 11:51:53;;;;;;;12.95;10.53;;;;;;;15.11;78.86;99324.55;1706121;81;25735;-74
2021/05/18 11:54:28;;;;;;;11.22;9.98;;;;;;;15.09;78.84;99324.78;1705559;81;26501;-74
2021/05/18 11:56:57;;;;;;;13.62;10.38;;;;;;;15.11;79.03;99324.55;1706563;81;25655;-73
2021/05/18 11:59:24;;;;;;;14.07;10.58;;;;;;;15.07;78.82;99326.83;1706718;81;25298;-73
2021/05/18 12:02:01;;;;;;;13.93;10.15;;;;;;;15.06;78.93;99335.76;1707790;81;25275;-75
2021/05/18 12:04:29;;;;;;;10.98;9.73;;;;;;;15.08;79.09;99335.52;1706046;81;25307;-75
2021/05/18 12:07:05;;;;;;;14.20;11.60;;;;;;;15.12;79.05;99342.48;1706637;81;25618;-73
2021/05/18 12:09:41;;;;;;;14.58;11.08;;;;;;;15.13;79.04;99334.35;1705650;81;25669;-73
2021/05/18 12:12:11;;;;;;;12.78;10.82;;;;;;;15.15;79.04;99334.95;1708189;81;25491;-74
2021/05/18 12:14:49;;;;;;;12.95;11.15;;;;;;;15.22;78.96;99340.13;1710387;81;25830;-74
2021/05/18 12:17:28;;;;;;;11.40;10.13;;;;;;;15.30;79.03;99338.02;1706280;82;25386;-74
2021/05/18 12:19:55;;;;;;;11.60;10.25;;;;;;;15.32;78.62;99335.95;1704782;81;25559;-75
2021/05/18 12:22:21;;;;;;;11.20;9.20;;;;;;;15.37;78.64;99343.19;1707025;81;25649;-72
2021/05/18 12:24:47;;;;;;;10.35;9.05;;;;;;;15.35;78.22;99341.80;1705565;81;26461;-73
2021/05/18 12:27:12;;;;;;;9.40;8.28;;;;;;;15.26;77.84;99343.94;1706132;82;31758;-74
2021/05/18 12:29:46;;;;;;;9.75;8.73;;;;;;;15.23;77.89;99347.02;1706476;81;35153;-74
2021/05/18 12:32:27;;;;;;;11.97;8.25;;;;;;;15.21;78.03;99347.73;1707384;81;25215;-75
2021/05/18 12:34:58;;;;;;;13.32;8.15;;;;;;;15.30;78.62;99351.19;1708961;81;25738;-75
2021/05/18 12:37:49;;;;;;;10.65;7.75;;;;;;;15.39;78.16;99354.31;1706979;81;25229;-73
2021/05/18 12:40:33;;;;;;;8.75;7.62;;;;;;;15.38;77.54;99357.95;1708995;82;26329;-75
2021/05/18 12:43:23;;;;;;;8.25;7.25;;;;;;;15.35;77.45;99354.97;1708531;81;25487;-75
2021/05/18 12:46:11;;;;;;;10.10;8.43;;;;;;;15.35;77.35;99353.13;1708332;81;25503;-75
2021/05/18 12:48:39;;;;;;;10.35;7.85;;;;;;;15.35;77.37;99354.97;1707261;81;25509;-75
2021/05/18 12:51:21;;;;;;;10.23;7.45;;;;;;;15.38;77.60;99363.22;1707308;81;25155;-75
2021/05/18 12:53:47;;;;;;;8.10;6.97;;;;;;;15.45;77.20;99352.63;1708615;81;25557;-75
2021/05/18 12:56:29;;;;;;;9.28;7.42;;;;;;;15.47;77.13;99365.06;1709050;81;34785;-74
2021/05/18 12:59:09;;;;;;;7.40;6.65;;;;;;;15.45;76.86;99367.91;1707828;81;25589;-74
2021/05/18 13:01:45;;;;;;;9.15;7.17;;;;;;;15.50;77.25;99368.56;1681121;83;26414;-73
2021/05/18 13:04:12;;;;;;;8.65;6.67;;;;;;;15.53;76.93;99369.44;1708095;81;25931;-74
2021/05/18 13:06:45;;;;;;;15.05;7.83;;;;;;;15.56;76.89;99373.46;1706700;81;26436;-74
2021/05/18 13:09:26;;;;;;;9.83;7.10;;;;;;;15.51;76.47;99378.06;1708478;81;25505;-74
2021/05/18 13:12:11;;;;;;;9.85;7.67;;;;;;;15.47;76.54;99379.55;1705987;81;25627;-73
2021/05/18 13:15:01;;;;;;;12.47;8.25;;;;;;;15.37;76.52;99376.63;1706834;81;25644;-74
2021/05/18 13:17:31;;;;;;;11.87;7.83;;;;;;;15.25;76.77;99376.53;1709512;82;25418;-73
2021/05/18 13:20:10;;;;;;;9.48;7.47;;;;;;;15.24;77.04;99372.30;1707612;81;25571;-72
2021/05/18 13:22:38;;;;;;;12.93;8.33;;;;;;;15.22;77.21;99372.54;1709398;82;25952;-73
2021/05/18 13:28:02;;;;;;;9.63;7.40;;;;;;;15.33;77.13;99377.55;1707540;81;26308;-75
2021/05/18 13:30:31;;;;;;;13.95;8.13;;;;;;;15.30;76.95;99372.73;1706116;81;26613;-75
2021/05/18 13:32:57;;;;;;;9.75;8.33;;;;;;;15.29;77.00;99381.15;1705873;81;25575;-76
2021/05/18 13:35:28;;;;;;;9.90;8.88;;;;;;;15.25;76.99;99376.05;1708745;81;25185;-74
2021/05/18 13:37:56;;;;;;;11.12;8.45;;;;;;;15.19;76.83;99381.36;1705105;81;25686;-74
2021/05/18 13:40:22;;;;;;;9.90;8.25;;;;;;;15.14;77.09;99383.36;1706466;82;26296;-73
2021/05/18 13:42:50;;;;;;;11.12;8.75;;;;;;;15.08;77.34;99377.11;1706795;81;25627;-74
2021/05/18 13:45:17;;;;;;;10.60;9.20;;;;;;;15.01;77.38;99379.55;1706712;81;25596;-73
2021/05/18 13:47:43;;;;;;;12.13;8.73;;;;;;;14.96;77.51;99379.39;1706115;81;25498;-72
2021/05/18 13:50:11;;;;;;;15.60;9.03;;;;;;;14.90;77.86;99379.75;1709745;81;32369;-73
2021/05/18 13:52:36;;;;;;;13.58;8.65;;;;;;;14.84;77.63;99381.42;1708908;81;25735;-74
2021/05/18 13:55:04;;;;;;;12.98;8.55;;;;;;;14.84;77.81;99385.86;1705298;82;33796;-73
2021/05/18 13:57:29;;;;;;;9.90;7.95;;;;;;;14.80;77.93;99388.64;1707474;81;25259;-74
2021/05/18 13:59:56;;;;;;;10.50;7.25;;;;;;;14.77;77.99;99390.39;1707843;81;34631;-75
2021/05/18 14:02:22;;;;;;;11.38;8.83;;;;;;;14.75;78.21;99385.34;1682259;83;25704;-75
2021/05/18 14:04:47;;;;;;;12.28;8.90;;;;;;;14.76;78.13;99390.91;1682317;83;26572;-75
2021/05/18 14:10:10;;;;;;;9.58;8.15;;;;;;;14.74;78.08;99392.14;1662980;84;25725;-75
2021/05/18 14:12:36;;;;;;;9.50;7.60;;;;;;;14.72;78.33;99402.07;1706509;81;25529;-75
2021/05/18 14:15:04;;;;;;;8.10;7.00;;;;;;;14.71;78.28;99398.64;1708847;81;32268;-74
2021/05/18 14:17:30;;;;;;;11.45;6.87;;;;;;;14.72;78.37;99395.49;1707365;81;26217;-74
2021/05/18 14:19:56;;;;;;;8.43;6.53;;;;;;;14.76;78.43;99397.48;1706711;81;33102;-75
2021/05/18 14:22:22;;;;;;;8.25;5.80;;;;;;;14.79;78.21;99393.63;1682488;83;31159;-75
2021/05/18 14:27:20;;;;;;;7.58;4.60;;;;;;;14.72;77.62;99404.70;1706791;81;25592;-74
2021/05/18 14:29:47;;;;;;;7.95;5.30;;;;;;;14.68;77.50;99409.59;1708954;81;25568;-74
2021/05/18 14:32:14;;;;;;;8.63;5.47;;;;;;;14.63;77.41;99404.17;1709584;81;25623;-75
2021/05/18 14:34:42;;;;;;;8.65;4.70;;;;;;;14.61;77.48;99409.63;1710175;81;25683;-72
2021/05/18 14:37:08;;;;;;;7.90;5.17;;;;;;;14.60;77.43;99411.17;1707509;81;25162;-74
2021/05/18 14:39:54;;;;;;;7.55;4.50;;;;;;;14.59;77.57;99418.75;1709477;81;25542;-73
2021/05/18 14:44:49;;;;;;;5.37;3.85;;;;;;;14.55;77.69;99405.75;1708465;81;25533;-74
2021/05/18 14:47:23;;;;;;;6.97;3.90;;;;;;;14.56;77.81;99408.15;1706339;82;30605;-74
2021/05/18 14:55:19;;;;;;;6.17;4.30;;;;;;;14.54;77.91;99401.49;1709572;81;25576;-73
2021/05/18 14:57:44;;;;;;;6.65;4.30;;;;;;;14.54;77.82;99398.37;1707776;81;25543;-74
2021/05/18 15:00:11;;;;;;;8.58;3.85;;;;;;;14.55;77.64;99403.12;1709312;81;31184;-74
2021/05/18 15:02:37;;;;;;;6.83;4.10;;;;;;;14.55;77.63;99397.86;1707646;81;25445;-74
2021/05/18 15:05:04;;;;;;;7.33;4.53;;;;;;;14.52;77.62;99404.84;1706880;81;33410;-74
2021/05/18 15:07:30;;;;;;;9.10;4.58;;;;;;;14.51;77.73;99406.64;1682718;83;26317;-74
2021/05/18 15:09:56;;;;;;;6.20;3.50;;;;;;;14.50;77.57;99396.35;1682900;83;33068;-73
2021/05/18 15:12:22;;;;;;;6.53;4.45;;;;;;;14.47;77.64;99411.25;1664539;84;31210;-73
2021/05/18 15:14:48;;;;;;;6.47;3.40;;;;;;;14.41;77.59;99404.50;1707357;81;34707;-74
2021/05/18 15:17:15;;;;;;;8.93;4.05;;;;;;;14.36;77.87;99408.28;1709889;81;32386;-74
2021/05/18 15:19:41;;;;;;;4.28;3.17;;;;;;;14.34;77.82;99408.19;1710357;81;25772;-74
2021/05/18 15:22:09;;;;;;;4.37;3.10;;;;;;;14.32;77.89;99410.22;1710048;81;25653;-74
2021/05/18 15:24:35;;;;;;;8.78;3.80;;;;;;;14.32;78.05;99405.80;1706892;81;25846;-71
2021/05/18 15:27:00;;;;;;;6.15;3.20;;;;;;;14.33;77.84;99402.66;1705996;81;34767;-74
2021/05/18 15:29:27;;;;;;;6.85;3.30;;;;;;;14.33;77.85;99404.77;1708194;81;32245;-74
2021/05/18 15:31:53;;;;;;;5.50;2.92;;;;;;;14.30;77.70;99411.77;1707295;82;26614;-73
2021/05/18 15:34:19;;;;;;;4.67;3.33;;;;;;;14.29;77.79;99407.50;1685498;83;25231;-74
2021/05/18 15:36:47;;;;;;;6.15;3.62;;;;;;;14.28;77.74;99407.22;1704310;82;38087;-74
2021/05/18 15:39:13;;;;;;;4.37;2.58;;;;;;;14.27;77.86;99409.56;1708490;81;25552;-74
2021/05/18 15:41:39;;;;;;;4.33;2.62;;;;;;;14.28;77.89;99409.85;1709602;81;25617;-75
2021/05/18 15:44:05;;;;;;;6.28;3.37;;;;;;;14.21;78.02;99403.34;1708224;81;26046;-74
2021/05/18 15:46:31;;;;;;;5.87;2.67;;;;;;;14.21;78.02;99403.34;1707955;81;26679;-74
2021/05/18 15:48:57;;;;;;;3.60;2.70;;;;;;;14.20;78.02;99401.70;1707919;81;31173;-74
2021/05/18 15:51:23;;;;;;;6.60;3.08;;;;;;;14.21;78.08;99405.13;1707056;81;34625;-74
2021/05/18 15:53:49;;;;;;;8.63;3.02;;;;;;;14.23;78.12;99399.16;1706095;81;32352;-74
2021/05/18 15:56:14;;;;;;;5.12;3.58;;;;;;;14.25;78.12;99405.02;1706430;81;25677;-74
2021/05/18 15:58:40;;;;;;;6.72;3.30;;;;;;;14.26;78.01;99403.99;1709118;81;33129;-74
2021/05/18 16:01:06;;;;;;;5.55;3.62;;;;;;;14.27;77.98;99404.80;1705757;81;31227;-73
2021/05/18 16:03:32;;;;;;;6.05;3.00;;;;;;;14.29;78.02;99405.39;1709651;81;34683;-73
2021/05/18 16:06:03;;;;;;;6.87;3.25;;;;;;;14.29;78.02;99405.39;1685968;82;25686;-73
2021/05/18 16:11:00;;;;;;;5.87;3.95;;;;;;;14.26;78.03;99409.25;1706683;81;33170;-73
2021/05/18 16:13:26;;;;;;;5.42;3.72;;;;;;;14.26;77.95;99406.63;1708716;81;25627;-74
2021/05/18 16:15:58;;;;;;;6.37;3.67;;;;;;;14.20;78.10;99406.96;1683541;81;25712;-75
2021/05/18 16:18:25;;;;;;;9.55;4.22;;;;;;;14.19;78.28;99405.87;1707303;82;25165;-75
2021/05/18 16:20:53;;;;;;;5.37;3.58;;;;;;;14.18;78.24;99404.25;1708419;81;26188;-75
2021/05/18 16:23:19;;;;;;;5.12;3.27;;;;;;;14.20;78.25;99410.11;1706540;81;25548;-75
2021/05/18 16:25:44;;;;;;;5.08;3.60;;;;;;;14.17;78.27;99415.27;1707713;81;25546;-74
2021/05/18 16:28:10;;;;;;;7.42;4.25;;;;;;;14.12;78.40;99412.98;1707992;82;34659;-75
2021/05/18 16:30:36;;;;;;;6.50;3.75;;;;;;;14.08;78.46;99421.81;1708423;81;32746;-75
2021/05/18 16:33:02;;;;;;;8.90;3.75;;;;;;;14.08;78.67;99417.06;1707284;81;25923;-75
2021/05/18 16:35:29;;;;;;;7.25;4.03;;;;;;;14.07;78.75;99425.95;1707827;81;25593;-72
2021/05/18 16:37:55;;;;;;;6.22;3.70;;;;;;;14.06;78.68;99434.34;1708204;81;26453;-72
2021/05/18 16:40:21;;;;;;;6.78;3.83;;;;;;;14.06;78.76;99437.48;1708528;81;26394;-71
2021/05/18 16:42:47;;;;;;;6.10;3.85;;;;;;;14.03;78.95;99437.91;1707850;81;25215;-74
2021/05/18 16:45:14;;;;;;;9.15;4.55;;;;;;;14.04;78.81;99438.20;1709268;81;25959;-75
2021/05/18 16:47:39;;;;;;;7.85;4.47;;;;;;;14.02;78.83;99447.59;1709328;81;26311;-74
2021/05/18 16:50:08;;;;;;;7.63;4.13;;;;;;;14.00;79.04;99449.64;1681694;83;29348;-74
2021/05/18 16:52:39;;;;;;;9.18;4.03;;;;;;;13.97;79.08;99450.86;1707641;81;25491;-75
2021/05/18 16:55:08;;;;;;;5.62;3.92;;;;;;;13.97;79.06;99454.00;1708098;81;25447;-75
2021/05/18 16:57:35;;;;;;;6.10;4.50;;;;;;;13.96;79.15;99458.95;1709356;81;25759;-74
2021/05/18 17:00:01;;;;;;;7.05;4.15;;;;;;;13.95;79.37;99459.45;1708347;81;25626;-75
2021/05/18 17:02:28;;;;;;;7.85;4.72;;;;;;;13.94;79.33;99460.97;1706536;81;25577;-75